EHAM/AMS METAR and TAF weather

Enter ICAO airport designator
Station Type Date Time Source
EHAM METAR 2023/01/29 19:55 UTC NOAA

EHAM 291955Z 22014KT 9999 FEW009 SCT012 BKN022 06/04 Q1019 NOSIG


Station Type Date Time Source
EHAM Decoded METAR 2023/01/29 19:55 UTC NOAA

Amsterdam Airport Schiphol, Netherlands (EHAM) 52-18N 004-46E -2M
Jan 29, 2023 - 02:55 PM EST / 2023.01.29 1955 UTC
Wind: from the SW (220 degrees) at 16 MPH (14 KT):0
Visibility: greater than 7 mile(s):0
Sky conditions: mostly cloudy
Temperature: 42 F (6 C)
Dew Point: 39 F (4 C)
Relative Humidity: 86%
Pressure (altimeter): 30.09 in. Hg (1019 hPa)
ob: EHAM 291955Z 22014KT 9999 FEW009 SCT012 BKN022 06/04 Q1019 NOSIG
cycle: 20

Station Type Date Time Source
EHAM TAF 2023/01/29 18:27 UTC NOAA

TAF TAF EHAM 291710Z 2918/3024 25017KT 9999 BKN022
TEMPO 2918/3001 BKN014
BECMG 3001/3004 29018G28KT
TEMPO 3001/3004 4000 RADZ -SHRA SCT008 BKN010 FEW012TCU
BECMG 3008/3010 30022G33KT PROB30
TEMPO 3010/3015 7000 -SHRA FEW020CB SCT025
BECMG 3012/3015 31018KT
BECMG 3015/3018 30011KT
BECMG 3021/3024 25008KT

Example: see airport list